Time;durP1;ratioP1;P1;durP2;ratioP2;P2;SDS_P1;SDS_P2;PMS_P1;PMS_P2;Temp;Humidity;BMP_temperature;BMP_pressure;BME280_temperature;BME280_humidity;BME280_pressure;Samples;Min_cycle;Max_cycle;Signal;HPM_P1;HPM_P2
2023/10/12 00:02:26;;;;;;;12.68;7.38;;;;;;;;;;5110212;28;20122;-81
2023/10/12 00:05:00;;;;;;;15.60;9.18;;;;;;;;;;5110513;28;20039;-76
2023/10/12 00:07:33;;;;;;;17.80;10.23;;;;;;;;;;5109923;28;20044;-80
2023/10/12 00:12:41;;;;;;;17.02;8.85;;;;;;;;;;5109696;28;20122;-81
2023/10/12 00:15:23;;;;;;;14.63;9.00;;;;;;;;;;5110206;28;20043;-80
2023/10/12 00:18:08;;;;;;;12.82;8.27;;;;;;;;;;5111090;28;20064;-80
2023/10/12 00:20:35;;;;;;;14.65;8.75;;;;;;;;;;5110867;28;20507;-79
2023/10/12 00:23:09;;;;;;;13.35;7.63;;;;;;;;;;5110811;28;20059;-78
2023/10/12 00:25:46;;;;;;;14.90;8.80;;;;;;;;;;5110846;28;20138;-78
2023/10/12 00:28:19;;;;;;;14.20;8.50;;;;;;;;;;5110433;28;20052;-78
2023/10/12 00:30:55;;;;;;;14.60;8.38;;;;;;;;;;5111036;28;20040;-80
2023/10/12 00:33:23;;;;;;;17.10;8.25;;;;;;;;;;5110321;28;20059;-81
2023/10/12 00:35:57;;;;;;;14.02;8.90;;;;;;;;;;5111044;28;20075;-78
2023/10/12 00:38:28;;;;;;;14.70;8.32;;;;;;;;;;5109811;28;20047;-79
2023/10/12 00:40:57;;;;;;;18.23;8.63;;;;;;;;;;5110829;28;20054;-80
2023/10/12 00:43:33;;;;;;;12.27;7.35;;;;;;;;;;5110534;28;20054;-80
2023/10/12 00:49:13;;;;;;;15.30;8.48;;;;;;;;;;5081885;28;20475;-77
2023/10/12 00:51:51;;;;;;;13.23;8.23;;;;;;;;;;5110855;28;20044;-75
2023/10/12 00:54:43;;;;;;;11.85;7.03;;;;;;;;;;5109879;28;20070;-77
2023/10/12 00:57:10;;;;;;;13.85;7.68;;;;;;;;;;5110382;28;20059;-80
2023/10/12 00:59:38;;;;;;;12.43;7.70;;;;;;;;;;5110528;28;20051;-77
2023/10/12 01:02:08;;;;;;;11.02;7.20;;;;;;;;;;5110261;28;20062;-76
2023/10/12 01:04:41;;;;;;;13.85;7.85;;;;;;;;;;5109846;28;20091;-80
2023/10/12 01:07:19;;;;;;;9.95;6.75;;;;;;;;;;5110049;28;20054;-79
2023/10/12 01:09:48;;;;;;;15.07;8.20;;;;;;;;;;5109568;28;20086;-81
2023/10/12 01:12:16;;;;;;;12.95;8.18;;;;;;;;;;5110014;28;20046;-78
2023/10/12 01:14:47;;;;;;;13.27;7.85;;;;;;;;;;5109841;28;20519;-81
2023/10/12 01:17:17;;;;;;;;;;;;;;;;;;5110229;28;20056;-82
2023/10/12 01:19:47;;;;;;;;;;;;;;;;;;5110195;28;19931;-76
2023/10/12 01:22:14;;;;;;;9.40;6.05;;;;;;;;;;5109744;28;19973;-79
2023/10/12 01:24:57;;;;;;;11.90;7.47;;;;;;;;;;5109071;28;20218;-80
2023/10/12 01:27:27;;;;;;;13.10;7.88;;;;;;;;;;5109362;28;20051;-79
2023/10/12 01:30:14;;;;;;;12.18;7.18;;;;;;;;;;5109864;28;20044;-80
2023/10/12 01:32:41;;;;;;;11.90;7.70;;;;;;;;;;5109296;28;20499;-80
2023/10/12 01:35:11;;;;;;;12.95;6.65;;;;;;;;;;5109480;28;20397;-80
2023/10/12 01:37:55;;;;;;;15.50;8.07;;;;;;;;;;5109641;28;20077;-81
2023/10/12 01:40:24;;;;;;;16.00;7.78;;;;;;;;;;5109404;28;20101;-80
2023/10/12 01:42:51;;;;;;;13.50;8.18;;;;;;;;;;5109387;28;20062;-80
2023/10/12 01:47:56;;;;;;;12.90;8.00;;;;;;;;;;5109065;28;20051;-81
2023/10/12 01:50:28;;;;;;;9.70;6.57;;;;;;;;;;5109311;28;20450;-80
2023/10/12 01:52:58;;;;;;;14.43;7.85;;;;;;;;;;5091288;28;20058;-74
2023/10/12 01:55:30;;;;;;;11.73;7.18;;;;;;;;;;5109347;28;20447;-80
2023/10/12 01:57:58;;;;;;;12.25;7.20;;;;;;;;;;5108932;28;20047;-81
2023/10/12 02:00:38;;;;;;;8.52;5.60;;;;;;;;;;5109270;28;20052;-80
2023/10/12 02:03:17;;;;;;;16.55;7.53;;;;;;;;;;5109045;28;20112;-76
2023/10/12 02:05:56;;;;;;;13.30;8.00;;;;;;;;;;5109698;28;20052;-80
2023/10/12 02:08:23;;;;;;;11.45;7.45;;;;;;;;;;5108712;28;20047;-80
2023/10/12 02:11:03;;;;;;;14.25;6.65;;;;;;;;;;5109367;28;20051;-81
2023/10/12 02:13:33;;;;;;;10.95;6.72;;;;;;;;;;5108787;28;20052;-81
2023/10/12 02:16:04;;;;;;;15.70;8.15;;;;;;;;;;5109040;28;20056;-81
2023/10/12 02:18:32;;;;;;;13.27;7.78;;;;;;;;;;5108766;28;20075;-81
2023/10/12 02:23:57;;;;;;;12.35;8.32;;;;;;;;;;5091422;28;20414;-79
2023/10/12 02:26:35;;;;;;;12.27;8.00;;;;;;;;;;5109449;28;20051;-78
2023/10/12 02:34:29;;;;;;;11.50;6.75;;;;;;;;;;5108787;28;20100;-80
2023/10/12 02:39:39;;;;;;;11.73;7.22;;;;;;;;;;5108383;28;20071;-80
2023/10/12 02:45:16;;;;;;;12.27;7.28;;;;;;;;;;5108495;28;19973;-76
2023/10/12 02:47:45;;;;;;;;;;;;;;;;;;5109154;28;20431;-81
2023/10/12 02:52:43;;;;;;;13.48;7.95;;;;;;;;;;5108669;28;20096;-81
2023/10/12 02:55:26;;;;;;;13.75;7.13;;;;;;;;;;5108317;28;20143;-80
2023/10/12 02:58:07;;;;;;;12.48;7.80;;;;;;;;;;5108658;28;20079;-80
2023/10/12 03:03:38;;;;;;;12.85;7.68;;;;;;;;;;5108983;28;20040;-79
2023/10/12 03:06:00;;;;;;;10.32;6.85;;;;;;;;;;5105080;28;20043;-80
2023/10/12 03:08:34;;;;;;;11.90;7.05;;;;;;;;;;5108189;28;20126;-79
2023/10/12 03:11:11;;;;;;;11.35;6.97;;;;;;;;;;5112256;28;20097;-81
2023/10/12 03:13:42;;;;;;;13.30;8.25;;;;;;;;;;5111973;28;20144;-80
2023/10/12 03:16:20;;;;;;;15.05;8.52;;;;;;;;;;5112163;28;20058;-79
2023/10/12 03:19:00;;;;;;;12.57;8.07;;;;;;;;;;5112395;28;20100;-80
2023/10/12 03:21:28;;;;;;;12.75;7.80;;;;;;;;;;5112493;28;20092;-81
2023/10/12 03:23:57;;;;;;;12.05;7.70;;;;;;;;;;5111822;28;20044;-81
2023/10/12 03:26:24;;;;;;;10.82;6.80;;;;;;;;;;5111749;28;20058;-80
2023/10/12 03:29:09;;;;;;;13.63;7.05;;;;;;;;;;5111927;28;20126;-78
2023/10/12 03:37:03;;;;;;;14.10;7.38;;;;;;;;;;5111947;28;20059;-81
2023/10/12 03:39:41;;;;;;;9.50;6.60;;;;;;;;;;5111106;28;20447;-80
2023/10/12 03:42:11;;;;;;;13.88;7.18;;;;;;;;;;5111825;28;20075;-77
2023/10/12 03:49:57;;;;;;;12.60;7.07;;;;;;;;;;5111289;28;20143;-78
2023/10/12 03:52:28;;;;;;;;;;;;;;;;;;5111939;28;20658;-71
2023/10/12 03:57:29;;;;;;;15.68;7.22;;;;;;;;;;5111706;28;20040;-80
2023/10/12 04:02:42;;;;;;;12.35;6.75;;;;;;;;;;5111248;28;20053;-73
2023/10/12 04:05:16;;;;;;;16.63;8.45;;;;;;;;;;5111320;28;20134;-79
2023/10/12 04:08:00;;;;;;;11.65;7.15;;;;;;;;;;5111546;28;20164;-74
2023/10/12 04:18:41;;;;;;;11.60;7.53;;;;;;;;;;5111390;28;20039;-79
2023/10/12 04:21:17;;;;;;;10.38;7.03;;;;;;;;;;5109713;28;20388;-79
2023/10/12 04:23:48;;;;;;;11.23;6.78;;;;;;;;;;5110909;28;20051;-73
2023/10/12 04:28:50;;;;;;;11.60;6.85;;;;;;;;;;5110919;28;20138;-73
2023/10/12 04:34:08;;;;;;;12.23;7.55;;;;;;;;;;5111184;28;20054;-80
2023/10/12 04:39:37;;;;;;;8.80;5.88;;;;;;;;;;5110321;28;20043;-76
2023/10/12 04:42:11;;;;;;;9.90;6.43;;;;;;;;;;5110478;28;20044;-79
2023/10/12 04:44:43;;;;;;;11.25;6.70;;;;;;;;;;5110648;28;20047;-78
2023/10/12 04:47:12;;;;;;;10.75;6.57;;;;;;;;;;5110844;28;20112;-79
2023/10/12 04:57:32;;;;;;;10.30;6.28;;;;;;;;;;5110340;28;20083;-80
2023/10/12 05:02:41;;;;;;;10.52;6.10;;;;;;;;;;5110446;28;20415;-80
2023/10/12 05:07:58;;;;;;;10.40;6.00;;;;;;;;;;5080612;28;20044;-81
2023/10/12 05:10:41;;;;;;;8.60;6.03;;;;;;;;;;5091602;28;20572;-81
2023/10/12 05:13:10;;;;;;;9.85;6.05;;;;;;;;;;5109824;28;20055;-80
2023/10/12 05:16:04;;;;;;;11.07;6.70;;;;;;;;;;5109572;28;20599;-81
2023/10/12 05:18:32;;;;;;;9.90;6.25;;;;;;;;;;5109909;28;20043;-81
2023/10/12 05:21:00;;;;;;;8.93;5.60;;;;;;;;;;5109411;28;20075;-81
2023/10/12 05:23:29;;;;;;;8.85;6.18;;;;;;;;;;5109712;28;20043;-82
2023/10/12 05:28:30;;;;;;;12.20;7.35;;;;;;;;;;5109689;28;20045;-81
2023/10/12 05:36:10;;;;;;;9.90;6.30;;;;;;;;;;5109662;28;20183;-76
2023/10/12 05:38:51;;;;;;;13.52;6.20;;;;;;;;;;5109413;28;20050;-78
2023/10/12 05:41:33;;;;;;;8.35;5.90;;;;;;;;;;5109515;28;20047;-77
2023/10/12 05:44:08;;;;;;;8.90;5.70;;;;;;;;;;5109620;28;20051;-74
2023/10/12 05:46:36;;;;;;;9.93;6.03;;;;;;;;;;5109677;28;20083;-77
2023/10/12 05:49:12;;;;;;;11.40;5.53;;;;;;;;;;5109568;28;20101;-77
2023/10/12 05:51:44;;;;;;;10.98;5.80;;;;;;;;;;5108853;28;20051;-80
2023/10/12 05:54:15;;;;;;;9.57;6.28;;;;;;;;;;5090998;28;20058;-80
2023/10/12 05:56:43;;;;;;;8.43;5.63;;;;;;;;;;5109455;28;20096;-73
2023/10/12 05:59:12;;;;;;;9.05;6.03;;;;;;;;;;5091758;28;20043;-78
2023/10/12 06:01:45;;;;;;;12.73;6.70;;;;;;;;;;5108912;28;20415;-73
2023/10/12 06:04:16;;;;;;;8.77;5.95;;;;;;;;;;5109482;28;20036;-74
2023/10/12 06:06:43;;;;;;;9.23;5.50;;;;;;;;;;5108920;28;20104;-79
2023/10/12 06:09:20;;;;;;;9.27;5.70;;;;;;;;;;5108858;28;20086;-76
2023/10/12 06:11:48;;;;;;;9.38;5.55;;;;;;;;;;5108807;28;20047;-80
2023/10/12 06:14:20;;;;;;;8.75;5.38;;;;;;;;;;5109434;28;20051;-76
2023/10/12 06:16:47;;;;;;;9.70;6.05;;;;;;;;;;5108864;28;20043;-78
2023/10/12 06:19:26;;;;;;;10.18;6.18;;;;;;;;;;5108328;28;20075;-76
2023/10/12 06:22:13;;;;;;;10.77;6.10;;;;;;;;;;5108981;28;20075;-78
2023/10/12 06:24:41;;;;;;;12.85;6.82;;;;;;;;;;5108565;28;20043;-80
2023/10/12 06:29:51;;;;;;;8.95;6.07;;;;;;;;;;5108996;28;20047;-78
2023/10/12 06:32:19;;;;;;;10.43;5.90;;;;;;;;;;5108797;28;20697;-80
2023/10/12 06:45:51;;;;;;;11.25;6.13;;;;;;;;;;5112594;28;20126;-80
2023/10/12 06:51:02;;;;;;;9.10;5.75;;;;;;;;;;5112874;28;20040;-79
2023/10/12 06:53:36;;;;;;;9.77;5.65;;;;;;;;;;5112668;28;20039;-81
2023/10/12 07:02:09;;;;;;;14.13;6.03;;;;;;;;;;5066941;28;20703;-81
2023/10/12 07:04:39;;;;;;;8.27;5.57;;;;;;;;;;5112505;28;20484;-79
2023/10/12 07:07:11;;;;;;;11.95;6.80;;;;;;;;;;5112456;28;20075;-81
2023/10/12 07:09:46;;;;;;;9.68;6.55;;;;;;;;;;5112071;28;20039;-79
2023/10/12 07:12:20;;;;;;;12.05;7.20;;;;;;;;;;5111870;28;20051;-79
2023/10/12 07:14:47;;;;;;;12.50;6.35;;;;;;;;;;5112075;28;20406;-71
2023/10/12 07:17:14;;;;;;;12.07;6.68;;;;;;;;;;5111755;28;20381;-78
2023/10/12 07:19:49;;;;;;;10.68;6.68;;;;;;;;;;5112132;28;20450;-79
2023/10/12 07:22:18;;;;;;;11.07;6.18;;;;;;;;;;5111702;28;20573;-74
2023/10/12 07:24:52;;;;;;;11.43;6.47;;;;;;;;;;5111640;28;20439;-79
2023/10/12 07:27:22;;;;;;;12.07;6.28;;;;;;;;;;5111833;28;20290;-80
2023/10/12 07:30:10;;;;;;;15.77;7.35;;;;;;;;;;5112439;28;20075;-73
2023/10/12 07:32:44;;;;;;;9.75;6.20;;;;;;;;;;5111883;28;20090;-80
2023/10/12 07:35:18;;;;;;;10.45;6.05;;;;;;;;;;5112053;28;20079;-77
2023/10/12 07:37:46;;;;;;;10.27;6.65;;;;;;;;;;5111837;28;20043;-78
2023/10/12 07:40:17;;;;;;;13.00;6.97;;;;;;;;;;5111746;28;20390;-79
2023/10/12 07:42:48;;;;;;;10.10;6.25;;;;;;;;;;5111720;28;20048;-79
2023/10/12 07:45:16;;;;;;;12.48;6.55;;;;;;;;;;5093982;28;20051;-78
2023/10/12 07:47:46;;;;;;;10.00;6.05;;;;;;;;;;5111416;28;20622;-79
2023/10/12 07:50:15;;;;;;;8.80;5.90;;;;;;;;;;5112058;28;20059;-80
2023/10/12 07:52:47;;;;;;;9.43;5.85;;;;;;;;;;5111157;28;20043;-70
2023/10/12 07:55:18;;;;;;;8.43;5.60;;;;;;;;;;5110348;28;20051;-77
2023/10/12 07:57:46;;;;;;;;;;;;;;;;;;5112153;28;20399;-76
2023/10/12 08:07:59;;;;;;;9.05;5.30;;;;;;;;;;5111341;28;20059;-70
2023/10/12 08:15:55;;;;;;;8.73;4.70;;;;;;;;;;5111015;28;20419;-80
2023/10/12 08:24:10;;;;;;;14.33;4.70;;;;;;;;;;5110743;28;20055;-79
2023/10/12 08:29:21;;;;;;;11.77;4.50;;;;;;;;;;5110916;28;20043;-80
2023/10/12 08:39:38;;;;;;;9.35;4.65;;;;;;;;;;5110446;28;20127;-74
2023/10/12 08:44:54;;;;;;;6.95;4.75;;;;;;;;;;5110327;28;20040;-77
2023/10/12 08:47:26;;;;;;;9.35;4.97;;;;;;;;;;5110279;28;20047;-79
2023/10/12 08:49:53;;;;;;;9.73;6.22;;;;;;;;;;5110502;28;20043;-79
2023/10/12 08:52:29;;;;;;;9.70;5.70;;;;;;;;;;5109844;28;20051;-77
2023/10/12 08:55:04;;;;;;;10.20;5.38;;;;;;;;;;5110078;28;20058;-79
2023/10/12 08:57:55;;;;;;;9.02;5.22;;;;;;;;;;5092038;28;20521;-75
2023/10/12 09:03:06;;;;;;;7.55;4.38;;;;;;;;;;5109986;28;20067;-75
2023/10/12 09:05:35;;;;;;;9.95;4.68;;;;;;;;;;5110087;28;20047;-74
2023/10/12 09:13:19;;;;;;;6.78;3.90;;;;;;;;;;5110019;28;20175;-78
2023/10/12 09:15:46;;;;;;;8.43;4.00;;;;;;;;;;5109910;28;20052;-79
2023/10/12 09:18:16;;;;;;;7.65;4.60;;;;;;;;;;5109720;28;20105;-78
2023/10/12 09:29:27;;;;;;;6.55;3.88;;;;;;;;;;5109538;28;20134;-79
2023/10/12 09:36:37;;;;;;;6.20;3.88;;;;;;;;;;5109588;28;20044;-78
2023/10/12 09:39:11;;;;;;;7.82;3.72;;;;;;;;;;5108897;28;20039;-80
2023/10/12 09:41:40;;;;;;;6.85;3.97;;;;;;;;;;5109579;28;20132;-78
2023/10/12 09:44:10;;;;;;;7.47;4.10;;;;;;;;;;5109298;28;20043;-79
2023/10/12 09:46:47;;;;;;;6.53;4.13;;;;;;;;;;5109520;28;20044;-79
2023/10/12 09:49:21;;;;;;;5.72;3.72;;;;;;;;;;5109394;28;20040;-79
2023/10/12 09:51:59;;;;;;;6.15;3.88;;;;;;;;;;5109151;28;20491;-78
2023/10/12 09:54:45;;;;;;;6.07;3.65;;;;;;;;;;5108727;28;20588;-79
2023/10/12 09:57:19;;;;;;;7.03;3.67;;;;;;;;;;5109290;28;20497;-80
2023/10/12 09:59:52;;;;;;;5.72;3.53;;;;;;;;;;5109258;28;20077;-79
2023/10/12 10:02:31;;;;;;;5.15;3.47;;;;;;;;;;5108991;28;20538;-80
2023/10/12 10:05:11;;;;;;;7.57;3.92;;;;;;;;;;5109183;28;20043;-78
2023/10/12 10:07:53;;;;;;;4.85;3.35;;;;;;;;;;5109207;28;20525;-80
2023/10/12 10:10:35;;;;;;;5.20;3.47;;;;;;;;;;5108876;28;20044;-78
2023/10/12 10:13:10;;;;;;;4.75;3.42;;;;;;;;;;5108991;28;20056;-77
2023/10/12 10:15:59;;;;;;;6.32;3.65;;;;;;;;;;5108546;28;20066;-80
2023/10/12 10:18:29;;;;;;;6.70;3.42;;;;;;;;;;5110601;28;20039;-80
2023/10/12 10:21:04;;;;;;;6.85;3.67;;;;;;;;;;5113293;28;20039;-78
2023/10/12 10:23:37;;;;;;;9.27;3.20;;;;;;;;;;5112837;28;20127;-80
2023/10/12 10:26:20;;;;;;;6.20;3.15;;;;;;;;;;5113380;28;20131;-79
2023/10/12 10:28:55;;;;;;;5.82;3.50;;;;;;;;;;5113213;28;20043;-79
2023/10/12 10:31:31;;;;;;;4.93;3.40;;;;;;;;;;5112970;28;20047;-74
2023/10/12 10:34:05;;;;;;;4.40;2.92;;;;;;;;;;5112659;28;20580;-79
2023/10/12 10:36:34;;;;;;;4.72;3.20;;;;;;;;;;5112748;28;20044;-80
2023/10/12 10:41:54;;;;;;;6.15;3.53;;;;;;;;;;5113376;28;20054;-79
2023/10/12 10:44:23;;;;;;;4.25;3.10;;;;;;;;;;5112930;28;20130;-76
2023/10/12 10:46:54;;;;;;;5.32;3.33;;;;;;;;;;5112867;28;20414;-78
2023/10/12 10:49:31;;;;;;;6.13;3.13;;;;;;;;;;5112506;28;20057;-79
2023/10/12 10:54:37;;;;;;;6.55;3.72;;;;;;;;;;5112248;28;20067;-80
2023/10/12 10:57:17;;;;;;;6.07;3.67;;;;;;;;;;5113067;28;20131;-80
2023/10/12 10:59:44;;;;;;;5.75;3.45;;;;;;;;;;5112428;28;20054;-80
2023/10/12 11:02:14;;;;;;;5.28;3.67;;;;;;;;;;5112407;28;20727;-80
2023/10/12 11:04:44;;;;;;;4.55;3.00;;;;;;;;;;5094581;28;20051;-80
2023/10/12 11:07:17;;;;;;;7.32;3.15;;;;;;;;;;5112427;28;20073;-80
2023/10/12 11:12:23;;;;;;;6.22;2.90;;;;;;;;;;5112070;28;20085;-79
2023/10/12 11:14:52;;;;;;;6.63;3.28;;;;;;;;;;5111858;28;20048;-79
2023/10/12 11:17:20;;;;;;;4.20;3.10;;;;;;;;;;5112622;28;20050;-77
2023/10/12 11:19:49;;;;;;;4.43;3.20;;;;;;;;;;5094084;28;20040;-80
2023/10/12 11:22:17;;;;;;;5.75;3.03;;;;;;;;;;5112431;28;20051;-78
2023/10/12 11:24:45;;;;;;;5.20;2.80;;;;;;;;;;5111945;28;20048;-80
2023/10/12 11:27:29;;;;;;;4.75;3.17;;;;;;;;;;5112089;28;20058;-80
2023/10/12 11:29:57;;;;;;;4.55;2.83;;;;;;;;;;5111487;28;20044;-81
2023/10/12 11:32:24;;;;;;;9.05;3.00;;;;;;;;;;5111978;28;20416;-81
2023/10/12 11:34:52;;;;;;;5.20;3.00;;;;;;;;;;5111772;28;20451;-81
2023/10/12 11:37:20;;;;;;;5.88;3.03;;;;;;;;;;5111832;28;20083;-80
2023/10/12 11:39:50;;;;;;;3.95;2.88;;;;;;;;;;5111315;28;20499;-81
2023/10/12 11:42:17;;;;;;;3.67;2.60;;;;;;;;;;5112158;28;20040;-81
2023/10/12 11:44:46;;;;;;;6.32;2.97;;;;;;;;;;5093810;28;20051;-81
2023/10/12 11:47:23;;;;;;;4.13;2.70;;;;;;;;;;5093521;28;20079;-80
2023/10/12 11:49:58;;;;;;;4.20;2.88;;;;;;;;;;5111506;28;20560;-79
2023/10/12 11:52:33;;;;;;;5.00;2.70;;;;;;;;;;5111434;28;20050;-80
2023/10/12 11:55:20;;;;;;;3.58;2.47;;;;;;;;;;5111070;28;20059;-81
2023/10/12 11:57:54;;;;;;;4.72;2.83;;;;;;;;;;5111693;28;20608;-81
2023/10/12 12:00:22;;;;;;;6.47;2.75;;;;;;;;;;5093168;28;20051;-80
2023/10/12 12:02:52;;;;;;;4.80;2.90;;;;;;;;;;5110978;28;20044;-81
2023/10/12 12:05:21;;;;;;;6.05;3.00;;;;;;;;;;5110847;28;20051;-80
2023/10/12 12:07:51;;;;;;;4.35;2.83;;;;;;;;;;5110975;28;20127;-80
2023/10/12 12:10:26;;;;;;;4.00;2.50;;;;;;;;;;5111109;28;20043;-81
2023/10/12 12:12:53;;;;;;;4.47;2.58;;;;;;;;;;5111278;28;20051;-75
2023/10/12 12:15:23;;;;;;;4.78;2.70;;;;;;;;;;5110432;28;20116;-80
2023/10/12 12:17:49;;;;;;;4.05;2.42;;;;;;;;;;5111186;28;20055;-78
2023/10/12 12:20:21;;;;;;;4.57;2.47;;;;;;;;;;5111154;28;20127;-81
2023/10/12 12:22:48;;;;;;;5.15;2.65;;;;;;;;;;5110401;28;20538;-81
2023/10/12 12:25:23;;;;;;;3.80;2.40;;;;;;;;;;5111084;28;20051;-80
2023/10/12 12:27:55;;;;;;;4.03;2.70;;;;;;;;;;5111203;28;20043;-80
2023/10/12 12:33:25;;;;;;;4.43;2.50;;;;;;;;;;5078297;28;20511;-81
2023/10/12 12:36:01;;;;;;;3.55;2.17;;;;;;;;;;5110582;28;20048;-81
2023/10/12 12:38:43;;;;;;;3.85;2.60;;;;;;;;;;5110422;28;20495;-80
2023/10/12 12:41:18;;;;;;;5.20;2.40;;;;;;;;;;5110202;27;20044;-80
2023/10/12 12:43:48;;;;;;;5.75;2.30;;;;;;;;;;5110353;28;20047;-81
2023/10/12 12:46:16;;;;;;;3.55;2.22;;;;;;;;;;5110445;28;20050;-81
2023/10/12 12:48:48;;;;;;;3.95;2.50;;;;;;;;;;5110447;28;20714;-81
2023/10/12 12:51:16;;;;;;;3.67;2.75;;;;;;;;;;5110316;28;20487;-81
2023/10/12 12:53:46;;;;;;;3.72;2.20;;;;;;;;;;5110252;28;20100;-81
2023/10/12 12:56:14;;;;;;;3.65;2.15;;;;;;;;;;5092175;28;20104;-81
2023/10/12 12:58:49;;;;;;;4.78;2.53;;;;;;;;;;5092284;28;20415;-79
2023/10/12 13:01:18;;;;;;;4.93;2.40;;;;;;;;;;5109972;28;20079;-81
2023/10/12 13:03:45;;;;;;;5.82;2.50;;;;;;;;;;5110119;28;20066;-80
2023/10/12 13:06:14;;;;;;;3.50;2.45;;;;;;;;;;5110467;28;20047;-78
2023/10/12 13:08:41;;;;;;;6.00;2.60;;;;;;;;;;5110096;28;20047;-81
2023/10/12 13:11:09;;;;;;;4.28;2.50;;;;;;;;;;5110207;28;20066;-76
2023/10/12 13:13:39;;;;;;;6.55;2.40;;;;;;;;;;5109991;28;20105;-80
2023/10/12 13:16:12;;;;;;;4.30;2.30;;;;;;;;;;5109428;28;20094;-80
2023/10/12 13:18:40;;;;;;;4.57;2.33;;;;;;;;;;5110374;28;20050;-80
2023/10/12 13:21:07;;;;;;;5.22;2.83;;;;;;;;;;5110074;28;20058;-80
2023/10/12 13:23:35;;;;;;;6.53;2.28;;;;;;;;;;5108340;28;20399;-76
2023/10/12 13:26:13;;;;;;;6.20;2.40;;;;;;;;;;5109790;28;20047;-81
2023/10/12 13:28:41;;;;;;;4.05;2.15;;;;;;;;;;5110089;28;20040;-80
2023/10/12 13:31:12;;;;;;;5.28;2.33;;;;;;;;;;5091988;28;20043;-81
2023/10/12 13:33:43;;;;;;;5.05;2.22;;;;;;;;;;5109754;28;20044;-81
2023/10/12 13:36:10;;;;;;;4.53;2.20;;;;;;;;;;5109399;28;20083;-81
2023/10/12 13:38:37;;;;;;;4.97;2.22;;;;;;;;;;5109511;28;20043;-81
2023/10/12 13:41:10;;;;;;;5.03;2.55;;;;;;;;;;5109683;28;20051;-79
2023/10/12 13:43:38;;;;;;;3.47;2.20;;;;;;;;;;5109595;28;20049;-80
2023/10/12 13:46:09;;;;;;;5.90;2.28;;;;;;;;;;5109477;28;20047;-80
2023/10/12 13:48:40;;;;;;;4.53;2.25;;;;;;;;;;5109790;28;20054;-80
2023/10/12 13:53:46;;;;;;;6.60;2.42;;;;;;;;;;5108577;28;20455;-79
2023/10/12 13:56:13;;;;;;;3.92;2.28;;;;;;;;;;5108966;28;20087;-79
2023/10/12 13:58:41;;;;;;;4.85;2.30;;;;;;;;;;5109367;28;20047;-80
2023/10/12 14:01:20;;;;;;;4.32;2.15;;;;;;;;;;5109091;28;20047;-78
2023/10/12 14:04:28;;;;;;;4.80;2.05;;;;;;;;;;5109114;28;20044;-79
2023/10/12 14:06:36;;;;;;;3.95;2.17;;;;;;;;;;5106724;28;20045;-81
2023/10/12 14:09:04;;;;;;;6.25;2.20;;;;;;;;;;5109079;28;20054;-78
2023/10/12 14:11:31;;;;;;;8.18;2.42;;;;;;;;;;5109044;28;20043;-81
2023/10/12 14:14:02;;;;;;;4.97;2.38;;;;;;;;;;5109195;28;20058;-77
2023/10/12 14:16:28;;;;;;;3.55;2.15;;;;;;;;;;5108351;28;20637;-81
2023/10/12 14:18:55;;;;;;;3.33;2.15;;;;;;;;;;5109304;28;20071;-81
2023/10/12 14:21:22;;;;;;;5.85;2.15;;;;;;;;;;5108952;28;20406;-81
2023/10/12 14:23:51;;;;;;;3.05;1.90;;;;;;;;;;5108473;28;20044;-81
2023/10/12 14:26:18;;;;;;;4.88;2.25;;;;;;;;;;5108884;28;20063;-80
2023/10/12 14:28:50;;;;;;;4.45;1.95;;;;;;;;;;5109221;28;20040;-79
2023/10/12 14:31:20;;;;;;;5.00;2.15;;;;;;;;;;5108680;28;20416;-80
2023/10/12 14:33:48;;;;;;;6.25;2.15;;;;;;;;;;5091362;28;20051;-80
2023/10/12 14:36:16;;;;;;;5.38;2.53;;;;;;;;;;5108804;28;20142;-80
2023/10/12 14:38:45;;;;;;;8.17;2.63;;;;;;;;;;5108421;28;20132;-80
2023/10/12 14:41:16;;;;;;;5.70;2.13;;;;;;;;;;5108813;28;20138;-80
2023/10/12 14:43:48;;;;;;;2.90;1.92;;;;;;;;;;5108677;28;20533;-69
2023/10/12 14:46:18;;;;;;;5.72;2.15;;;;;;;;;;5108966;28;20046;-68
2023/10/12 14:48:49;;;;;;;4.05;2.13;;;;;;;;;;5108827;28;20048;-81
2023/10/12 14:51:20;;;;;;;4.88;2.20;;;;;;;;;;5108474;28;20618;-74
2023/10/12 14:53:50;;;;;;;5.78;2.33;;;;;;;;;;5108489;28;20067;-80
2023/10/12 14:56:29;;;;;;;4.03;2.22;;;;;;;;;;5108592;28;20104;-79
2023/10/12 14:58:57;;;;;;;4.15;2.35;;;;;;;;;;5108870;28;20052;-81
2023/10/12 15:01:32;;;;;;;3.00;2.00;;;;;;;;;;5108841;28;20050;-81
2023/10/12 15:03:59;;;;;;;4.65;2.10;;;;;;;;;;5108228;28;20043;-80
2023/10/12 15:06:30;;;;;;;5.05;2.20;;;;;;;;;;5111867;28;20081;-80
2023/10/12 15:08:57;;;;;;;3.65;2.03;;;;;;;;;;5111833;28;20090;-79
2023/10/12 15:11:25;;;;;;;6.38;1.95;;;;;;;;;;5112775;28;20051;-81
2023/10/12 15:13:53;;;;;;;4.63;2.13;;;;;;;;;;5112165;28;20044;-74
2023/10/12 15:16:21;;;;;;;4.70;2.60;;;;;;;;;;5111862;28;20097;-80
2023/10/12 15:18:48;;;;;;;5.65;2.30;;;;;;;;;;5112232;28;20043;-80
2023/10/12 15:21:16;;;;;;;5.57;2.28;;;;;;;;;;5112609;28;20048;-81
2023/10/12 15:23:57;;;;;;;4.03;2.03;;;;;;;;;;5111768;28;20143;-80
2023/10/12 15:26:25;;;;;;;4.68;2.63;;;;;;;;;;5111879;28;20048;-81
2023/10/12 15:28:53;;;;;;;4.13;2.20;;;;;;;;;;5112611;28;20040;-81
2023/10/12 15:31:25;;;;;;;4.95;2.60;;;;;;;;;;5112284;28;20243;-81
2023/10/12 15:33:53;;;;;;;3.40;2.30;;;;;;;;;;5111877;28;20048;-81
2023/10/12 15:36:23;;;;;;;6.20;2.28;;;;;;;;;;5111602;28;20426;-78
2023/10/12 15:38:51;;;;;;;4.88;2.45;;;;;;;;;;5111093;28;20158;-81
2023/10/12 15:41:19;;;;;;;5.60;2.60;;;;;;;;;;5111540;28;20087;-79
2023/10/12 15:43:46;;;;;;;4.38;2.40;;;;;;;;;;5111609;28;20048;-81
2023/10/12 15:46:13;;;;;;;3.92;2.40;;;;;;;;;;5111437;28;20051;-80
2023/10/12 15:48:41;;;;;;;5.30;2.30;;;;;;;;;;5111517;28;20151;-79
2023/10/12 15:51:19;;;;;;;4.72;2.25;;;;;;;;;;5111901;28;20048;-80
2023/10/12 15:53:47;;;;;;;5.03;2.50;;;;;;;;;;5111244;28;20062;-80
2023/10/12 15:56:15;;;;;;;3.80;2.30;;;;;;;;;;5111173;28;20505;-78
2023/10/12 15:58:45;;;;;;;4.30;2.30;;;;;;;;;;5111394;28;20389;-81
2023/10/12 16:01:14;;;;;;;7.90;2.40;;;;;;;;;;5111827;28;20044;-81
2023/10/12 16:03:42;;;;;;;6.50;2.60;;;;;;;;;;5111309;28;20487;-79
2023/10/12 16:06:11;;;;;;;8.70;2.50;;;;;;;;;;5111541;28;20044;-80
2023/10/12 16:08:39;;;;;;;5.80;2.40;;;;;;;;;;5110524;28;20043;-80
2023/10/12 16:11:07;;;;;;;6.25;2.55;;;;;;;;;;5111481;28;20047;-75
2023/10/12 16:13:37;;;;;;;4.90;2.53;;;;;;;;;;5111176;28;20055;-80
2023/10/12 16:16:11;;;;;;;3.95;2.30;;;;;;;;;;5110323;28;20454;-78
2023/10/12 16:18:42;;;;;;;4.43;2.13;;;;;;;;;;5092889;28;20559;-79
2023/10/12 16:21:11;;;;;;;5.18;2.92;;;;;;;;;;5111347;28;20083;-79
2023/10/12 16:23:38;;;;;;;5.05;2.28;;;;;;;;;;5110562;28;20066;-80
2023/10/12 16:26:09;;;;;;;3.47;2.10;;;;;;;;;;5110878;28;20595;-78
2023/10/12 16:28:35;;;;;;;4.00;2.50;;;;;;;;;;5110563;28;20040;-74
2023/10/12 16:31:03;;;;;;;5.10;2.33;;;;;;;;;;5110889;28;20097;-80
2023/10/12 16:33:36;;;;;;;3.75;2.53;;;;;;;;;;5110674;28;20051;-80
2023/10/12 16:36:06;;;;;;;5.75;2.70;;;;;;;;;;5110582;28;20048;-80
2023/10/12 16:38:33;;;;;;;5.43;2.70;;;;;;;;;;5110264;28;20422;-78
2023/10/12 16:41:03;;;;;;;3.88;2.10;;;;;;;;;;5111034;28;20127;-79
2023/10/12 16:43:33;;;;;;;6.03;2.92;;;;;;;;;;5110465;28;20130;-78
2023/10/12 16:46:00;;;;;;;;;;;;;;;;;;5110932;28;20044;-71
2023/10/12 16:48:28;;;;;;;5.45;2.17;;;;;;;;;;5110312;28;20321;-81
2023/10/12 16:50:56;;;;;;;4.13;2.42;;;;;;;;;;5110662;28;20055;-78
2023/10/12 16:53:23;;;;;;;5.22;2.58;;;;;;;;;;5109797;28;20047;-78
2023/10/12 16:55:49;;;;;;;5.55;2.67;;;;;;;;;;5110085;28;20050;-76
2023/10/12 16:58:17;;;;;;;6.80;2.78;;;;;;;;;;5110037;28;20108;-72
2023/10/12 17:00:44;;;;;;;4.13;2.40;;;;;;;;;;5110236;28;20043;-81
2023/10/12 17:03:11;;;;;;;4.13;2.60;;;;;;;;;;5109975;28;20452;-80
2023/10/12 17:05:38;;;;;;;4.18;2.63;;;;;;;;;;5110062;28;20075;-82
2023/10/12 17:08:06;;;;;;;4.25;2.92;;;;;;;;;;5109346;28;20043;-82
2023/10/12 17:10:34;;;;;;;12.88;3.20;;;;;;;;;;5110450;28;20051;-82
2023/10/12 17:13:01;;;;;;;7.57;3.00;;;;;;;;;;5109975;28;20066;-82
2023/10/12 17:15:27;;;;;;;7.30;2.92;;;;;;;;;;5109833;28;20048;-81
2023/10/12 17:17:54;;;;;;;6.88;3.20;;;;;;;;;;5110150;28;20109;-81
2023/10/12 17:20:23;;;;;;;5.40;3.10;;;;;;;;;;5110271;28;20048;-82
2023/10/12 17:22:51;;;;;;;6.22;3.15;;;;;;;;;;5109821;28;20044;-82
2023/10/12 17:25:18;;;;;;;5.20;3.30;;;;;;;;;;5109115;28;20048;-81
2023/10/12 17:27:45;;;;;;;5.55;3.55;;;;;;;;;;5109596;28;20118;-82
2023/10/12 17:30:12;;;;;;;5.82;3.78;;;;;;;;;;5109792;28;20043;-81
2023/10/12 17:32:40;;;;;;;6.53;3.85;;;;;;;;;;5109714;28;20612;-80
2023/10/12 17:35:12;;;;;;;5.90;3.28;;;;;;;;;;5109825;28;20044;-82
2023/10/12 17:37:40;;;;;;;5.65;3.25;;;;;;;;;;5109063;28;20051;-80
2023/10/12 17:40:09;;;;;;;6.72;3.30;;;;;;;;;;5109381;28;20048;-82
2023/10/12 17:42:36;;;;;;;4.60;3.28;;;;;;;;;;5109412;28;20503;-81
2023/10/12 17:45:09;;;;;;;5.55;3.00;;;;;;;;;;5109411;28;20050;-82
2023/10/12 17:47:38;;;;;;;6.38;3.40;;;;;;;;;;5109585;28;20049;-81
2023/10/12 17:50:12;;;;;;;8.50;3.75;;;;;;;;;;5109411;28;20556;-82
2023/10/12 17:52:45;;;;;;;6.53;3.67;;;;;;;;;;5109398;28;20044;-82
2023/10/12 17:55:16;;;;;;;4.22;2.90;;;;;;;;;;5109276;28;20078;-82
2023/10/12 17:57:44;;;;;;;6.00;3.17;;;;;;;;;;5109350;28;20130;-82